sensor_id;sensor_type;location;lat;lon;timestamp;P1;durP1;ratioP1;P2;durP2;ratioP2
82727;SDS011;72459;50.110;8.750;2024-01-15T00:01:25;23.73;;;9.80;;
82727;SDS011;72459;50.110;8.750;2024-01-15T00:03:51;23.85;;;9.35;;
82727;SDS011;72459;50.110;8.750;2024-01-15T00:06:16;17.97;;;7.97;;
82727;SDS011;72459;50.110;8.750;2024-01-15T00:08:41;18.47;;;8.23;;
82727;SDS011;72459;50.110;8.750;2024-01-15T00:11:07;16.53;;;7.30;;
82727;SDS011;72459;50.110;8.750;2024-01-15T00:13:32;25.23;;;10.10;;
82727;SDS011;72459;50.110;8.750;2024-01-15T00:15:57;21.67;;;9.07;;
82727;SDS011;72459;50.110;8.750;2024-01-15T00:18:23;23.30;;;9.33;;
82727;SDS011;72459;50.110;8.750;2024-01-15T00:20:48;21.60;;;9.20;;
82727;SDS011;72459;50.110;8.750;2024-01-15T00:23:13;19.53;;;9.37;;
82727;SDS011;72459;50.110;8.750;2024-01-15T00:25:39;24.73;;;9.25;;
82727;SDS011;72459;50.110;8.750;2024-01-15T00:28:04;17.20;;;7.78;;
82727;SDS011;72459;50.110;8.750;2024-01-15T00:30:30;27.75;;;9.43;;
82727;SDS011;72459;50.110;8.750;2024-01-15T00:32:55;21.20;;;8.37;;
82727;SDS011;72459;50.110;8.750;2024-01-15T00:35:22;19.00;;;7.22;;
82727;SDS011;72459;50.110;8.750;2024-01-15T00:37:47;21.67;;;8.33;;
82727;SDS011;72459;50.110;8.750;2024-01-15T00:40:12;21.58;;;7.95;;
82727;SDS011;72459;50.110;8.750;2024-01-15T00:42:38;19.42;;;8.00;;
82727;SDS011;72459;50.110;8.750;2024-01-15T00:45:03;20.92;;;8.52;;
82727;SDS011;72459;50.110;8.750;2024-01-15T00:47:30;24.13;;;8.88;;
82727;SDS011;72459;50.110;8.750;2024-01-15T00:49:55;26.27;;;9.35;;
82727;SDS011;72459;50.110;8.750;2024-01-15T00:52:21;22.67;;;11.20;;
82727;SDS011;72459;50.110;8.750;2024-01-15T00:54:46;22.20;;;8.10;;
82727;SDS011;72459;50.110;8.750;2024-01-15T00:57:12;24.15;;;9.55;;
82727;SDS011;72459;50.110;8.750;2024-01-15T00:59:37;23.45;;;9.27;;
82727;SDS011;72459;50.110;8.750;2024-01-15T01:02:03;18.58;;;8.10;;
82727;SDS011;72459;50.110;8.750;2024-01-15T01:04:28;24.47;;;9.37;;
82727;SDS011;72459;50.110;8.750;2024-01-15T01:06:53;24.10;;;7.78;;
82727;SDS011;72459;50.110;8.750;2024-01-15T01:09:19;24.37;;;10.27;;
82727;SDS011;72459;50.110;8.750;2024-01-15T01:11:45;26.98;;;9.70;;
82727;SDS011;72459;50.110;8.750;2024-01-15T01:14:11;24.27;;;8.85;;
82727;SDS011;72459;50.110;8.750;2024-01-15T01:16:36;18.10;;;5.60;;
82727;SDS011;72459;50.110;8.750;2024-01-15T01:19:04;20.35;;;8.80;;
82727;SDS011;72459;50.110;8.750;2024-01-15T01:21:31;22.42;;;8.68;;
82727;SDS011;72459;50.110;8.750;2024-01-15T01:23:56;21.50;;;8.35;;
82727;SDS011;72459;50.110;8.750;2024-01-15T01:26:22;22.58;;;8.65;;
82727;SDS011;72459;50.110;8.750;2024-01-15T01:28:47;24.73;;;9.35;;
82727;SDS011;72459;50.110;8.750;2024-01-15T01:31:12;17.40;;;6.73;;
82727;SDS011;72459;50.110;8.750;2024-01-15T01:33:41;25.98;;;9.00;;
82727;SDS011;72459;50.110;8.750;2024-01-15T01:36:08;27.10;;;9.73;;
82727;SDS011;72459;50.110;8.750;2024-01-15T01:38:34;18.05;;;7.07;;
82727;SDS011;72459;50.110;8.750;2024-01-15T01:41:01;22.05;;;8.32;;
82727;SDS011;72459;50.110;8.750;2024-01-15T01:43:27;29.88;;;10.52;;
82727;SDS011;72459;50.110;8.750;2024-01-15T01:45:52;21.73;;;7.70;;
82727;SDS011;72459;50.110;8.750;2024-01-15T01:48:19;22.52;;;8.55;;
82727;SDS011;72459;50.110;8.750;2024-01-15T01:50:45;24.07;;;7.50;;
82727;SDS011;72459;50.110;8.750;2024-01-15T01:53:10;21.05;;;8.05;;
82727;SDS011;72459;50.110;8.750;2024-01-15T01:55:35;26.08;;;8.82;;
82727;SDS011;72459;50.110;8.750;2024-01-15T01:58:03;22.52;;;8.25;;
82727;SDS011;72459;50.110;8.750;2024-01-15T02:00:29;25.13;;;8.93;;
82727;SDS011;72459;50.110;8.750;2024-01-15T02:02:57;19.20;;;7.72;;
82727;SDS011;72459;50.110;8.750;2024-01-15T02:05:22;25.45;;;7.22;;
82727;SDS011;72459;50.110;8.750;2024-01-15T02:07:47;21.15;;;8.43;;
82727;SDS011;72459;50.110;8.750;2024-01-15T02:10:13;25.80;;;9.73;;
82727;SDS011;72459;50.110;8.750;2024-01-15T02:12:39;18.17;;;6.65;;
82727;SDS011;72459;50.110;8.750;2024-01-15T02:15:04;21.75;;;7.75;;
82727;SDS011;72459;50.110;8.750;2024-01-15T02:17:30;22.10;;;7.72;;
82727;SDS011;72459;50.110;8.750;2024-01-15T02:19:55;24.07;;;8.57;;
82727;SDS011;72459;50.110;8.750;2024-01-15T02:22:20;27.00;;;9.32;;
82727;SDS011;72459;50.110;8.750;2024-01-15T02:24:46;23.70;;;8.88;;
82727;SDS011;72459;50.110;8.750;2024-01-15T02:27:11;23.48;;;10.07;;
82727;SDS011;72459;50.110;8.750;2024-01-15T02:29:37;20.40;;;7.93;;
82727;SDS011;72459;50.110;8.750;2024-01-15T02:32:05;20.30;;;8.60;;
82727;SDS011;72459;50.110;8.750;2024-01-15T02:34:32;22.55;;;9.10;;
82727;SDS011;72459;50.110;8.750;2024-01-15T02:36:57;24.90;;;9.13;;
82727;SDS011;72459;50.110;8.750;2024-01-15T02:39:23;16.50;;;7.00;;
82727;SDS011;72459;50.110;8.750;2024-01-15T02:41:48;26.52;;;8.02;;
82727;SDS011;72459;50.110;8.750;2024-01-15T02:44:13;28.08;;;9.35;;
82727;SDS011;72459;50.110;8.750;2024-01-15T02:46:40;22.85;;;7.38;;
82727;SDS011;72459;50.110;8.750;2024-01-15T02:49:05;14.85;;;6.20;;
82727;SDS011;72459;50.110;8.750;2024-01-15T02:51:30;21.55;;;7.60;;
82727;SDS011;72459;50.110;8.750;2024-01-15T02:53:56;23.00;;;8.57;;
82727;SDS011;72459;50.110;8.750;2024-01-15T02:56:21;18.30;;;6.30;;
82727;SDS011;72459;50.110;8.750;2024-01-15T02:58:47;22.13;;;7.82;;
82727;SDS011;72459;50.110;8.750;2024-01-15T03:01:12;22.10;;;8.53;;
82727;SDS011;72459;50.110;8.750;2024-01-15T03:03:40;17.73;;;6.88;;
82727;SDS011;72459;50.110;8.750;2024-01-15T03:06:09;25.52;;;9.57;;
82727;SDS011;72459;50.110;8.750;2024-01-15T03:08:35;19.98;;;6.93;;
82727;SDS011;72459;50.110;8.750;2024-01-15T03:11:00;25.10;;;9.77;;
82727;SDS011;72459;50.110;8.750;2024-01-15T03:13:26;24.88;;;8.38;;
82727;SDS011;72459;50.110;8.750;2024-01-15T03:15:51;23.73;;;8.30;;
82727;SDS011;72459;50.110;8.750;2024-01-15T03:18:16;23.87;;;8.30;;
82727;SDS011;72459;50.110;8.750;2024-01-15T03:20:41;25.48;;;9.50;;
82727;SDS011;72459;50.110;8.750;2024-01-15T03:23:07;22.67;;;7.80;;
82727;SDS011;72459;50.110;8.750;2024-01-15T03:25:32;24.53;;;8.93;;
82727;SDS011;72459;50.110;8.750;2024-01-15T03:27:57;27.27;;;9.53;;
82727;SDS011;72459;50.110;8.750;2024-01-15T03:30:23;22.10;;;8.80;;
82727;SDS011;72459;50.110;8.750;2024-01-15T03:32:48;26.37;;;8.33;;
82727;SDS011;72459;50.110;8.750;2024-01-15T03:35:15;22.15;;;7.97;;
82727;SDS011;72459;50.110;8.750;2024-01-15T03:37:40;21.42;;;8.82;;
82727;SDS011;72459;50.110;8.750;2024-01-15T03:40:06;26.08;;;8.93;;
82727;SDS011;72459;50.110;8.750;2024-01-15T03:42:31;20.77;;;7.63;;
82727;SDS011;72459;50.110;8.750;2024-01-15T03:44:57;22.77;;;8.57;;
82727;SDS011;72459;50.110;8.750;2024-01-15T03:47:22;19.17;;;8.00;;
82727;SDS011;72459;50.110;8.750;2024-01-15T03:49:47;24.90;;;8.33;;
82727;SDS011;72459;50.110;8.750;2024-01-15T03:52:13;26.53;;;8.43;;
82727;SDS011;72459;50.110;8.750;2024-01-15T03:54:38;19.23;;;6.95;;
82727;SDS011;72459;50.110;8.750;2024-01-15T03:57:04;19.42;;;7.68;;
82727;SDS011;72459;50.110;8.750;2024-01-15T03:59:30;21.20;;;8.40;;
82727;SDS011;72459;50.110;8.750;2024-01-15T04:01:56;19.10;;;7.60;;
82727;SDS011;72459;50.110;8.750;2024-01-15T04:04:21;21.55;;;7.13;;
82727;SDS011;72459;50.110;8.750;2024-01-15T04:06:47;22.03;;;7.63;;
82727;SDS011;72459;50.110;8.750;2024-01-15T04:09:12;22.25;;;9.23;;
82727;SDS011;72459;50.110;8.750;2024-01-15T04:11:38;18.58;;;7.22;;
82727;SDS011;72459;50.110;8.750;2024-01-15T04:14:04;21.98;;;8.45;;
82727;SDS011;72459;50.110;8.750;2024-01-15T04:16:30;23.45;;;9.07;;
82727;SDS011;72459;50.110;8.750;2024-01-15T04:18:56;24.73;;;8.05;;
82727;SDS011;72459;50.110;8.750;2024-01-15T04:21:21;21.10;;;8.83;;
82727;SDS011;72459;50.110;8.750;2024-01-15T04:23:47;21.73;;;6.83;;
82727;SDS011;72459;50.110;8.750;2024-01-15T04:26:12;19.50;;;6.85;;
82727;SDS011;72459;50.110;8.750;2024-01-15T04:28:38;19.43;;;6.57;;
82727;SDS011;72459;50.110;8.750;2024-01-15T04:31:03;18.83;;;6.97;;
82727;SDS011;72459;50.110;8.750;2024-01-15T04:33:28;15.27;;;5.80;;
82727;SDS011;72459;50.110;8.750;2024-01-15T04:35:56;15.73;;;5.45;;
82727;SDS011;72459;50.110;8.750;2024-01-15T04:38:21;17.83;;;5.70;;
82727;SDS011;72459;50.110;8.750;2024-01-15T04:40:47;20.57;;;7.03;;
82727;SDS011;72459;50.110;8.750;2024-01-15T04:43:12;16.00;;;6.68;;
82727;SDS011;72459;50.110;8.750;2024-01-15T04:45:37;19.80;;;7.53;;
82727;SDS011;72459;50.110;8.750;2024-01-15T04:48:03;24.73;;;7.88;;
82727;SDS011;72459;50.110;8.750;2024-01-15T04:50:28;24.13;;;7.90;;
82727;SDS011;72459;50.110;8.750;2024-01-15T04:52:54;20.03;;;6.30;;
82727;SDS011;72459;50.110;8.750;2024-01-15T04:55:20;18.67;;;6.68;;
82727;SDS011;72459;50.110;8.750;2024-01-15T04:57:45;22.20;;;8.33;;
82727;SDS011;72459;50.110;8.750;2024-01-15T05:00:11;15.30;;;5.93;;
82727;SDS011;72459;50.110;8.750;2024-01-15T05:02:38;17.40;;;7.18;;
82727;SDS011;72459;50.110;8.750;2024-01-15T05:05:03;21.20;;;8.33;;
82727;SDS011;72459;50.110;8.750;2024-01-15T05:07:29;20.65;;;7.72;;
82727;SDS011;72459;50.110;8.750;2024-01-15T05:09:54;17.43;;;6.83;;
82727;SDS011;72459;50.110;8.750;2024-01-15T05:12:20;19.63;;;7.63;;
82727;SDS011;72459;50.110;8.750;2024-01-15T05:14:45;19.93;;;6.37;;
82727;SDS011;72459;50.110;8.750;2024-01-15T05:17:10;20.20;;;7.63;;
82727;SDS011;72459;50.110;8.750;2024-01-15T05:19:35;19.33;;;7.20;;
82727;SDS011;72459;50.110;8.750;2024-01-15T05:22:01;18.33;;;7.20;;
82727;SDS011;72459;50.110;8.750;2024-01-15T05:24:27;21.30;;;8.53;;
82727;SDS011;72459;50.110;8.750;2024-01-15T05:26:53;18.52;;;6.82;;
82727;SDS011;72459;50.110;8.750;2024-01-15T05:29:18;18.67;;;7.50;;
82727;SDS011;72459;50.110;8.750;2024-01-15T05:31:43;24.07;;;7.77;;
82727;SDS011;72459;50.110;8.750;2024-01-15T05:34:09;25.77;;;8.77;;
82727;SDS011;72459;50.110;8.750;2024-01-15T05:36:34;19.88;;;7.80;;
82727;SDS011;72459;50.110;8.750;2024-01-15T05:38:59;24.10;;;8.73;;
82727;SDS011;72459;50.110;8.750;2024-01-15T05:41:25;24.37;;;7.60;;
82727;SDS011;72459;50.110;8.750;2024-01-15T05:43:50;18.80;;;6.18;;
82727;SDS011;72459;50.110;8.750;2024-01-15T05:46:16;19.88;;;6.85;;
82727;SDS011;72459;50.110;8.750;2024-01-15T05:48:41;23.95;;;7.70;;
82727;SDS011;72459;50.110;8.750;2024-01-15T05:51:06;19.80;;;7.00;;
82727;SDS011;72459;50.110;8.750;2024-01-15T05:53:32;19.83;;;7.32;;
82727;SDS011;72459;50.110;8.750;2024-01-15T05:55:57;21.90;;;7.53;;
82727;SDS011;72459;50.110;8.750;2024-01-15T05:58:22;18.48;;;7.07;;
82727;SDS011;72459;50.110;8.750;2024-01-15T06:00:47;19.47;;;7.07;;
82727;SDS011;72459;50.110;8.750;2024-01-15T06:03:15;21.38;;;8.73;;
82727;SDS011;72459;50.110;8.750;2024-01-15T06:05:40;21.98;;;8.63;;
82727;SDS011;72459;50.110;8.750;2024-01-15T06:08:05;20.17;;;6.90;;
82727;SDS011;72459;50.110;8.750;2024-01-15T06:10:31;12.20;;;5.00;;
82727;SDS011;72459;50.110;8.750;2024-01-15T06:12:56;20.10;;;7.17;;
82727;SDS011;72459;50.110;8.750;2024-01-15T06:15:21;19.47;;;6.87;;
82727;SDS011;72459;50.110;8.750;2024-01-15T06:17:47;16.80;;;6.35;;
82727;SDS011;72459;50.110;8.750;2024-01-15T06:20:12;20.73;;;7.37;;
82727;SDS011;72459;50.110;8.750;2024-01-15T06:22:38;21.73;;;7.35;;
82727;SDS011;72459;50.110;8.750;2024-01-15T06:25:06;22.23;;;8.32;;
82727;SDS011;72459;50.110;8.750;2024-01-15T06:27:32;18.02;;;7.85;;
82727;SDS011;72459;50.110;8.750;2024-01-15T06:29:58;19.92;;;8.02;;
82727;SDS011;72459;50.110;8.750;2024-01-15T06:32:23;19.40;;;7.13;;
82727;SDS011;72459;50.110;8.750;2024-01-15T06:34:49;22.05;;;7.13;;
82727;SDS011;72459;50.110;8.750;2024-01-15T06:37:14;20.65;;;6.97;;
82727;SDS011;72459;50.110;8.750;2024-01-15T06:39:40;22.67;;;7.85;;
82727;SDS011;72459;50.110;8.750;2024-01-15T06:42:05;18.23;;;6.90;;
82727;SDS011;72459;50.110;8.750;2024-01-15T06:44:30;18.92;;;7.05;;
82727;SDS011;72459;50.110;8.750;2024-01-15T06:46:56;19.75;;;7.63;;
82727;SDS011;72459;50.110;8.750;2024-01-15T06:49:25;19.20;;;7.03;;
82727;SDS011;72459;50.110;8.750;2024-01-15T06:51:50;19.45;;;6.88;;
82727;SDS011;72459;50.110;8.750;2024-01-15T06:54:16;20.55;;;7.25;;
82727;SDS011;72459;50.110;8.750;2024-01-15T06:56:41;16.92;;;6.35;;
82727;SDS011;72459;50.110;8.750;2024-01-15T06:59:07;23.77;;;8.68;;
82727;SDS011;72459;50.110;8.750;2024-01-15T07:01:33;18.00;;;7.13;;
82727;SDS011;72459;50.110;8.750;2024-01-15T07:03:59;20.77;;;7.53;;
82727;SDS011;72459;50.110;8.750;2024-01-15T07:06:25;23.67;;;8.88;;
82727;SDS011;72459;50.110;8.750;2024-01-15T07:08:50;16.43;;;5.90;;
82727;SDS011;72459;50.110;8.750;2024-01-15T07:11:15;21.67;;;9.07;;
82727;SDS011;72459;50.110;8.750;2024-01-15T07:13:41;21.88;;;8.27;;
82727;SDS011;72459;50.110;8.750;2024-01-15T07:16:06;19.40;;;8.02;;
82727;SDS011;72459;50.110;8.750;2024-01-15T07:18:32;18.20;;;7.25;;
82727;SDS011;72459;50.110;8.750;2024-01-15T07:20:57;25.05;;;8.52;;
82727;SDS011;72459;50.110;8.750;2024-01-15T07:23:24;21.52;;;8.55;;
82727;SDS011;72459;50.110;8.750;2024-01-15T07:25:49;19.70;;;7.05;;
82727;SDS011;72459;50.110;8.750;2024-01-15T07:28:15;20.60;;;7.37;;
82727;SDS011;72459;50.110;8.750;2024-01-15T07:30:40;22.90;;;8.48;;
82727;SDS011;72459;50.110;8.750;2024-01-15T07:33:06;21.63;;;8.45;;
82727;SDS011;72459;50.110;8.750;2024-01-15T07:35:32;17.50;;;6.80;;
82727;SDS011;72459;50.110;8.750;2024-01-15T07:37:57;19.65;;;7.03;;
82727;SDS011;72459;50.110;8.750;2024-01-15T07:40:23;17.60;;;6.90;;
82727;SDS011;72459;50.110;8.750;2024-01-15T07:42:49;17.95;;;7.25;;
82727;SDS011;72459;50.110;8.750;2024-01-15T07:45:15;19.88;;;8.18;;
82727;SDS011;72459;50.110;8.750;2024-01-15T07:47:41;16.80;;;7.05;;
82727;SDS011;72459;50.110;8.750;2024-01-15T07:50:06;19.75;;;6.82;;
82727;SDS011;72459;50.110;8.750;2024-01-15T07:52:32;21.13;;;8.38;;
82727;SDS011;72459;50.110;8.750;2024-01-15T07:54:57;18.67;;;7.28;;
82727;SDS011;72459;50.110;8.750;2024-01-15T07:57:24;23.83;;;8.95;;
82727;SDS011;72459;50.110;8.750;2024-01-15T07:59:50;22.33;;;7.65;;
82727;SDS011;72459;50.110;8.750;2024-01-15T08:02:16;17.70;;;7.68;;
82727;SDS011;72459;50.110;8.750;2024-01-15T08:04:42;19.30;;;7.82;;
82727;SDS011;72459;50.110;8.750;2024-01-15T08:07:07;23.15;;;7.30;;
82727;SDS011;72459;50.110;8.750;2024-01-15T08:09:33;21.80;;;7.80;;
82727;SDS011;72459;50.110;8.750;2024-01-15T08:11:58;18.80;;;7.43;;
82727;SDS011;72459;50.110;8.750;2024-01-15T08:14:24;19.73;;;7.40;;
82727;SDS011;72459;50.110;8.750;2024-01-15T08:16:49;18.03;;;7.37;;
82727;SDS011;72459;50.110;8.750;2024-01-15T08:19:15;22.63;;;9.25;;
82727;SDS011;72459;50.110;8.750;2024-01-15T08:21:41;22.77;;;8.40;;
82727;SDS011;72459;50.110;8.750;2024-01-15T08:24:06;21.40;;;7.97;;
82727;SDS011;72459;50.110;8.750;2024-01-15T08:26:32;15.63;;;6.85;;
82727;SDS011;72459;50.110;8.750;2024-01-15T08:28:57;20.40;;;8.10;;
82727;SDS011;72459;50.110;8.750;2024-01-15T08:31:23;22.17;;;8.50;;
82727;SDS011;72459;50.110;8.750;2024-01-15T08:33:49;15.27;;;5.13;;
82727;SDS011;72459;50.110;8.750;2024-01-15T08:36:15;22.38;;;7.47;;
82727;SDS011;72459;50.110;8.750;2024-01-15T08:38:40;19.38;;;7.43;;
82727;SDS011;72459;50.110;8.750;2024-01-15T08:41:06;23.70;;;8.70;;
82727;SDS011;72459;50.110;8.750;2024-01-15T08:43:33;19.45;;;7.57;;
82727;SDS011;72459;50.110;8.750;2024-01-15T08:45:58;20.80;;;6.80;;
82727;SDS011;72459;50.110;8.750;2024-01-15T08:48:24;19.88;;;8.98;;
82727;SDS011;72459;50.110;8.750;2024-01-15T08:50:52;21.33;;;7.00;;
82727;SDS011;72459;50.110;8.750;2024-01-15T08:53:17;18.13;;;7.03;;
82727;SDS011;72459;50.110;8.750;2024-01-15T08:55:44;21.05;;;7.32;;
82727;SDS011;72459;50.110;8.750;2024-01-15T08:58:10;18.10;;;8.48;;
82727;SDS011;72459;50.110;8.750;2024-01-15T09:00:35;18.90;;;7.90;;
82727;SDS011;72459;50.110;8.750;2024-01-15T09:03:01;18.27;;;6.60;;
82727;SDS011;72459;50.110;8.750;2024-01-15T09:05:27;20.95;;;9.07;;
82727;SDS011;72459;50.110;8.750;2024-01-15T09:07:52;17.93;;;6.50;;
82727;SDS011;72459;50.110;8.750;2024-01-15T09:10:18;17.55;;;7.22;;
82727;SDS011;72459;50.110;8.750;2024-01-15T09:12:44;18.25;;;7.10;;
82727;SDS011;72459;50.110;8.750;2024-01-15T09:15:09;18.65;;;7.65;;
82727;SDS011;72459;50.110;8.750;2024-01-15T09:17:36;17.15;;;6.97;;
82727;SDS011;72459;50.110;8.750;2024-01-15T09:20:01;19.77;;;6.90;;
82727;SDS011;72459;50.110;8.750;2024-01-15T09:22:29;19.63;;;6.90;;
82727;SDS011;72459;50.110;8.750;2024-01-15T09:24:55;18.05;;;8.05;;
82727;SDS011;72459;50.110;8.750;2024-01-15T09:27:20;17.17;;;6.57;;
82727;SDS011;72459;50.110;8.750;2024-01-15T09:29:45;17.30;;;6.43;;
82727;SDS011;72459;50.110;8.750;2024-01-15T09:32:11;18.38;;;7.28;;
82727;SDS011;72459;50.110;8.750;2024-01-15T09:34:37;18.55;;;6.68;;
82727;SDS011;72459;50.110;8.750;2024-01-15T09:37:03;18.23;;;6.60;;
82727;SDS011;72459;50.110;8.750;2024-01-15T09:39:29;16.67;;;7.50;;
82727;SDS011;72459;50.110;8.750;2024-01-15T09:41:55;18.50;;;6.65;;
82727;SDS011;72459;50.110;8.750;2024-01-15T09:44:21;15.18;;;7.20;;
82727;SDS011;72459;50.110;8.750;2024-01-15T09:46:47;18.08;;;7.57;;
82727;SDS011;72459;50.110;8.750;2024-01-15T09:49:15;16.90;;;6.43;;
82727;SDS011;72459;50.110;8.750;2024-01-15T09:51:41;14.20;;;5.90;;
82727;SDS011;72459;50.110;8.750;2024-01-15T09:54:07;16.13;;;6.68;;
82727;SDS011;72459;50.110;8.750;2024-01-15T09:56:33;16.25;;;7.38;;
82727;SDS011;72459;50.110;8.750;2024-01-15T09:58:59;15.45;;;6.43;;
82727;SDS011;72459;50.110;8.750;2024-01-15T10:01:25;14.05;;;6.07;;
82727;SDS011;72459;50.110;8.750;2024-01-15T10:03:51;15.10;;;6.95;;
82727;SDS011;72459;50.110;8.750;2024-01-15T10:06:18;11.20;;;5.15;;
82727;SDS011;72459;50.110;8.750;2024-01-15T10:11:13;14.00;;;7.28;;
82727;SDS011;72459;50.110;8.750;2024-01-15T10:13:38;14.87;;;6.23;;
82727;SDS011;72459;50.110;8.750;2024-01-15T10:16:04;15.80;;;6.43;;
82727;SDS011;72459;50.110;8.750;2024-01-15T10:18:30;13.35;;;5.80;;
82727;SDS011;72459;50.110;8.750;2024-01-15T10:20:56;13.87;;;5.67;;
82727;SDS011;72459;50.110;8.750;2024-01-15T10:23:22;13.30;;;5.85;;
82727;SDS011;72459;50.110;8.750;2024-01-15T10:25:49;14.27;;;5.55;;
82727;SDS011;72459;50.110;8.750;2024-01-15T10:28:16;16.08;;;6.72;;
82727;SDS011;72459;50.110;8.750;2024-01-15T10:30:44;15.75;;;6.60;;
82727;SDS011;72459;50.110;8.750;2024-01-15T10:33:09;12.98;;;6.00;;
82727;SDS011;72459;50.110;8.750;2024-01-15T10:35:36;12.63;;;5.97;;
82727;SDS011;72459;50.110;8.750;2024-01-15T10:38:03;15.23;;;8.38;;
82727;SDS011;72459;50.110;8.750;2024-01-15T10:40:30;15.88;;;6.78;;
82727;SDS011;72459;50.110;8.750;2024-01-15T10:42:56;13.50;;;5.82;;
82727;SDS011;72459;50.110;8.750;2024-01-15T10:45:22;12.75;;;5.65;;
82727;SDS011;72459;50.110;8.750;2024-01-15T10:47:48;14.32;;;6.25;;
82727;SDS011;72459;50.110;8.750;2024-01-15T10:50:13;12.63;;;6.18;;
82727;SDS011;72459;50.110;8.750;2024-01-15T10:52:40;13.15;;;6.50;;
82727;SDS011;72459;50.110;8.750;2024-01-15T10:55:08;14.35;;;6.97;;
82727;SDS011;72459;50.110;8.750;2024-01-15T10:57:35;13.27;;;6.50;;
82727;SDS011;72459;50.110;8.750;2024-01-15T11:00:02;14.38;;;6.65;;
82727;SDS011;72459;50.110;8.750;2024-01-15T11:02:30;13.80;;;5.75;;
82727;SDS011;72459;50.110;8.750;2024-01-15T11:04:58;11.50;;;5.38;;
82727;SDS011;72459;50.110;8.750;2024-01-15T11:07:24;13.23;;;5.90;;
82727;SDS011;72459;50.110;8.750;2024-01-15T11:09:51;15.18;;;7.03;;
82727;SDS011;72459;50.110;8.750;2024-01-15T11:12:16;12.75;;;5.47;;
82727;SDS011;72459;50.110;8.750;2024-01-15T11:14:46;13.63;;;5.72;;
82727;SDS011;72459;50.110;8.750;2024-01-15T11:17:13;12.45;;;6.10;;
82727;SDS011;72459;50.110;8.750;2024-01-15T11:22:09;13.77;;;6.05;;
82727;SDS011;72459;50.110;8.750;2024-01-15T11:24:37;13.00;;;7.10;;
82727;SDS011;72459;50.110;8.750;2024-01-15T11:27:03;13.43;;;5.38;;
82727;SDS011;72459;50.110;8.750;2024-01-15T11:29:30;11.05;;;4.70;;
82727;SDS011;72459;50.110;8.750;2024-01-15T11:31:58;10.65;;;5.18;;
82727;SDS011;72459;50.110;8.750;2024-01-15T11:37:24;8.65;;;4.72;;
82727;SDS011;72459;50.110;8.750;2024-01-15T11:40:00;12.15;;;5.75;;
82727;SDS011;72459;50.110;8.750;2024-01-15T11:42:36;13.10;;;6.47;;
82727;SDS011;72459;50.110;8.750;2024-01-15T11:45:01;13.70;;;5.87;;
82727;SDS011;72459;50.110;8.750;2024-01-15T11:47:52;13.02;;;5.30;;
82727;SDS011;72459;50.110;8.750;2024-01-15T11:50:39;12.15;;;5.53;;
82727;SDS011;72459;50.110;8.750;2024-01-15T11:53:10;10.75;;;4.97;;
82727;SDS011;72459;50.110;8.750;2024-01-15T11:55:43;14.10;;;5.72;;
82727;SDS011;72459;50.110;8.750;2024-01-15T11:58:13;12.52;;;5.65;;
82727;SDS011;72459;50.110;8.750;2024-01-15T12:00:40;14.23;;;6.10;;
82727;SDS011;72459;50.110;8.750;2024-01-15T12:03:07;13.27;;;6.18;;
82727;SDS011;72459;50.110;8.750;2024-01-15T12:05:32;15.90;;;7.22;;
82727;SDS011;72459;50.110;8.750;2024-01-15T12:07:57;10.77;;;5.33;;
82727;SDS011;72459;50.110;8.750;2024-01-15T12:10:22;12.87;;;5.90;;
82727;SDS011;72459;50.110;8.750;2024-01-15T12:13:10;11.80;;;6.13;;
82727;SDS011;72459;50.110;8.750;2024-01-15T12:15:37;13.73;;;6.07;;
82727;SDS011;72459;50.110;8.750;2024-01-15T12:18:06;11.25;;;5.53;;
82727;SDS011;72459;50.110;8.750;2024-01-15T12:20:33;12.18;;;5.57;;
82727;SDS011;72459;50.110;8.750;2024-01-15T12:22:59;13.98;;;5.53;;
82727;SDS011;72459;50.110;8.750;2024-01-15T12:25:25;12.57;;;5.88;;
82727;SDS011;72459;50.110;8.750;2024-01-15T12:27:52;12.50;;;5.50;;
82727;SDS011;72459;50.110;8.750;2024-01-15T12:30:18;13.38;;;6.43;;
82727;SDS011;72459;50.110;8.750;2024-01-15T12:32:45;11.27;;;5.93;;
82727;SDS011;72459;50.110;8.750;2024-01-15T12:35:12;13.93;;;5.63;;
82727;SDS011;72459;50.110;8.750;2024-01-15T12:37:41;12.07;;;5.22;;
82727;SDS011;72459;50.110;8.750;2024-01-15T12:40:09;12.02;;;6.75;;
82727;SDS011;72459;50.110;8.750;2024-01-15T12:42:41;11.10;;;5.70;;
82727;SDS011;72459;50.110;8.750;2024-01-15T12:45:07;14.27;;;6.13;;
82727;SDS011;72459;50.110;8.750;2024-01-15T12:47:34;10.60;;;4.68;;
82727;SDS011;72459;50.110;8.750;2024-01-15T12:49:59;14.68;;;5.38;;
82727;SDS011;72459;50.110;8.750;2024-01-15T12:52:28;10.07;;;4.97;;
82727;SDS011;72459;50.110;8.750;2024-01-15T12:54:54;11.25;;;5.45;;
82727;SDS011;72459;50.110;8.750;2024-01-15T12:57:20;13.13;;;5.53;;
82727;SDS011;72459;50.110;8.750;2024-01-15T12:59:45;10.07;;;4.53;;
82727;SDS011;72459;50.110;8.750;2024-01-15T13:02:11;12.65;;;5.30;;
82727;SDS011;72459;50.110;8.750;2024-01-15T13:04:38;11.68;;;4.85;;
82727;SDS011;72459;50.110;8.750;2024-01-15T13:07:07;10.40;;;3.83;;
82727;SDS011;72459;50.110;8.750;2024-01-15T13:09:33;11.38;;;4.70;;
82727;SDS011;72459;50.110;8.750;2024-01-15T13:12:00;11.35;;;5.78;;
82727;SDS011;72459;50.110;8.750;2024-01-15T13:14:26;9.27;;;4.35;;
82727;SDS011;72459;50.110;8.750;2024-01-15T13:16:52;9.30;;;4.80;;
82727;SDS011;72459;50.110;8.750;2024-01-15T13:19:20;10.07;;;4.75;;
82727;SDS011;72459;50.110;8.750;2024-01-15T13:24:12;9.40;;;4.27;;
82727;SDS011;72459;50.110;8.750;2024-01-15T13:26:37;9.57;;;3.92;;
82727;SDS011;72459;50.110;8.750;2024-01-15T13:29:03;9.45;;;4.22;;
82727;SDS011;72459;50.110;8.750;2024-01-15T13:31:32;12.57;;;6.03;;
82727;SDS011;72459;50.110;8.750;2024-01-15T13:33:58;10.73;;;4.68;;
82727;SDS011;72459;50.110;8.750;2024-01-15T13:36:24;10.80;;;4.53;;
82727;SDS011;72459;50.110;8.750;2024-01-15T13:38:53;9.43;;;4.18;;
82727;SDS011;72459;50.110;8.750;2024-01-15T13:41:21;9.55;;;4.80;;
82727;SDS011;72459;50.110;8.750;2024-01-15T13:43:50;9.23;;;4.57;;
82727;SDS011;72459;50.110;8.750;2024-01-15T13:46:18;9.90;;;4.68;;
82727;SDS011;72459;50.110;8.750;2024-01-15T13:48:43;8.45;;;3.65;;
82727;SDS011;72459;50.110;8.750;2024-01-15T13:51:09;8.73;;;3.90;;
82727;SDS011;72459;50.110;8.750;2024-01-15T13:53:37;7.07;;;3.45;;
82727;SDS011;72459;50.110;8.750;2024-01-15T13:56:03;8.77;;;4.10;;
82727;SDS011;72459;50.110;8.750;2024-01-15T13:58:29;9.50;;;4.53;;
82727;SDS011;72459;50.110;8.750;2024-01-15T14:00:55;9.77;;;3.90;;
82727;SDS011;72459;50.110;8.750;2024-01-15T14:03:20;9.00;;;3.80;;
82727;SDS011;72459;50.110;8.750;2024-01-15T14:05:46;8.10;;;3.90;;
82727;SDS011;72459;50.110;8.750;2024-01-15T14:08:11;9.23;;;3.65;;
82727;SDS011;72459;50.110;8.750;2024-01-15T14:10:37;8.13;;;3.87;;
82727;SDS011;72459;50.110;8.750;2024-01-15T14:13:02;7.53;;;3.80;;
82727;SDS011;72459;50.110;8.750;2024-01-15T14:15:28;7.88;;;3.35;;
82727;SDS011;72459;50.110;8.750;2024-01-15T14:17:54;7.20;;;3.47;;
82727;SDS011;72459;50.110;8.750;2024-01-15T14:20:19;6.63;;;3.22;;
82727;SDS011;72459;50.110;8.750;2024-01-15T14:22:44;7.30;;;3.73;;
82727;SDS011;72459;50.110;8.750;2024-01-15T14:25:10;8.97;;;3.43;;
82727;SDS011;72459;50.110;8.750;2024-01-15T14:27:36;7.75;;;3.38;;
82727;SDS011;72459;50.110;8.750;2024-01-15T14:30:02;8.97;;;3.70;;
82727;SDS011;72459;50.110;8.750;2024-01-15T14:32:28;7.28;;;3.83;;
82727;SDS011;72459;50.110;8.750;2024-01-15T14:34:54;9.57;;;3.60;;
82727;SDS011;72459;50.110;8.750;2024-01-15T14:37:19;8.02;;;3.10;;
82727;SDS011;72459;50.110;8.750;2024-01-15T14:39:45;6.72;;;2.80;;